Time;durP1;ratioP1;P1;durP2;ratioP2;P2;SDS_P1;SDS_P2;PMS_P1;PMS_P2;Temp;Humidity;BMP_temperature;BMP_pressure;BME280_temperature;BME280_humidity;BME280_pressure;Samples;Min_cycle;Max_cycle;Signal;HPM_P1;HPM_P2
2023/03/07 00:02:25;;;;;;;22.48;14.32;;;;;;;;;;5049284;28;20040;-77
2023/03/07 00:04:51;;;;;;;23.35;15.50;;;;;;;;;;5074819;28;20040;-77
2023/03/07 00:07:17;;;;;;;24.35;15.20;;;;;;;;;;5073700;28;20484;-77
2023/03/07 00:09:43;;;;;;;21.85;14.38;;;;;;;;;;5056386;28;20059;-77
2023/03/07 00:12:10;;;;;;;21.27;13.70;;;;;;;;;;5055927;28;20053;-77
2023/03/07 00:14:36;;;;;;;24.15;13.57;;;;;;;;;;5040477;28;20091;-77
2023/03/07 00:17:02;;;;;;;21.45;12.27;;;;;;;;;;5055365;28;20515;-77
2023/03/07 00:19:28;;;;;;;19.08;11.18;;;;;;;;;;5037959;28;20052;-77
2023/03/07 00:21:54;;;;;;;15.95;10.70;;;;;;;;;;5054345;28;20114;-77
2023/03/07 00:24:20;;;;;;;18.00;9.50;;;;;;;;;;5054097;28;20114;-77
2023/03/07 00:26:46;;;;;;;15.70;7.85;;;;;;;;;;5073590;28;20558;-77
2023/03/07 00:29:12;;;;;;;13.60;7.45;;;;;;;;;;5071680;28;20048;-77
2023/03/07 00:31:38;;;;;;;11.13;6.55;;;;;;;;;;5028263;28;20049;-77
2023/03/07 00:34:05;;;;;;;10.13;5.75;;;;;;;;;;5068810;28;20048;-77
2023/03/07 00:36:31;;;;;;;12.23;5.28;;;;;;;;;;5042237;28;20041;-77
2023/03/07 00:38:57;;;;;;;11.20;5.40;;;;;;;;;;5055388;28;20037;-77
2023/03/07 00:41:24;;;;;;;10.13;5.35;;;;;;;;;;5067667;28;20055;-77
2023/03/07 00:43:51;;;;;;;11.20;5.07;;;;;;;;;;5073411;28;20447;-77
2023/03/07 00:46:18;;;;;;;13.63;5.05;;;;;;;;;;5038463;28;20052;-78
2023/03/07 00:48:44;;;;;;;13.25;4.93;;;;;;;;;;5061265;28;20048;-77
2023/03/07 00:51:12;;;;;;;12.90;5.22;;;;;;;;;;5068246;28;20043;-77
2023/03/07 00:53:38;;;;;;;12.07;4.85;;;;;;;;;;5068883;28;20048;-77
2023/03/07 00:56:05;;;;;;;14.85;4.85;;;;;;;;;;5073610;28;20094;-77
2023/03/07 00:58:33;;;;;;;10.60;4.60;;;;;;;;;;5036872;28;20045;-77
2023/03/07 01:00:59;;;;;;;12.40;4.88;;;;;;;;;;5034272;28;20049;-77
2023/03/07 01:03:26;;;;;;;13.00;3.97;;;;;;;;;;5054479;28;20049;-77
2023/03/07 01:05:52;;;;;;;16.75;4.18;;;;;;;;;;5036719;28;20041;-77
2023/03/07 01:08:19;;;;;;;10.90;3.60;;;;;;;;;;5055136;28;20454;-77
2023/03/07 01:10:47;;;;;;;17.05;4.30;;;;;;;;;;5056862;28;20048;-77
2023/03/07 01:13:13;;;;;;;11.27;3.72;;;;;;;;;;5056452;28;20131;-77
2023/03/07 01:15:39;;;;;;;16.52;3.92;;;;;;;;;;5040280;28;20453;-77
2023/03/07 01:18:06;;;;;;;13.18;2.97;;;;;;;;;;5056598;28;20071;-77
2023/03/07 01:20:32;;;;;;;15.38;3.03;;;;;;;;;;5056368;28;20127;-77
2023/03/07 01:22:59;;;;;;;13.63;3.10;;;;;;;;;;5074204;28;20040;-77
2023/03/07 01:25:25;;;;;;;11.55;2.92;;;;;;;;;;5055282;28;20181;-77
2023/03/07 01:27:51;;;;;;;10.05;2.70;;;;;;;;;;5041753;28;20037;-77
2023/03/07 01:30:18;;;;;;;12.05;2.88;;;;;;;;;;5071858;28;20049;-78
2023/03/07 01:32:44;;;;;;;14.55;2.78;;;;;;;;;;5044767;28;20392;-77
2023/03/07 01:35:10;;;;;;;11.88;2.72;;;;;;;;;;5062842;28;20044;-77
2023/03/07 01:37:36;;;;;;;13.88;3.13;;;;;;;;;;5037172;28;20409;-77
2023/03/07 01:40:03;;;;;;;14.93;3.05;;;;;;;;;;5037124;28;20118;-77
2023/03/07 01:42:30;;;;;;;11.65;2.65;;;;;;;;;;5035718;28;20047;-77
2023/03/07 01:45:06;;;;;;;12.05;2.58;;;;;;;;;;5039600;28;20098;-77
2023/03/07 01:47:32;;;;;;;17.52;2.67;;;;;;;;;;5069032;28;20145;-77
2023/03/07 01:50:00;;;;;;;19.98;3.05;;;;;;;;;;5031470;28;20036;-77
2023/03/07 01:52:29;;;;;;;12.80;3.08;;;;;;;;;;5055446;28;20048;-78
2023/03/07 01:55:00;;;;;;;17.90;2.85;;;;;;;;;;5053857;28;20665;-77
2023/03/07 01:57:31;;;;;;;13.32;3.30;;;;;;;;;;5035744;28;20131;-77
2023/03/07 01:59:59;;;;;;;10.82;2.35;;;;;;;;;;5063520;28;20079;-77
2023/03/07 02:02:25;;;;;;;17.13;2.88;;;;;;;;;;5042243;28;20041;-77
2023/03/07 02:04:59;;;;;;;11.88;2.20;;;;;;;;;;5062031;28;20044;-77
2023/03/07 02:07:28;;;;;;;9.00;2.30;;;;;;;;;;5064553;28;20048;-77
2023/03/07 02:09:57;;;;;;;16.02;2.42;;;;;;;;;;5053405;28;20462;-77
2023/03/07 02:12:23;;;;;;;13.65;2.60;;;;;;;;;;5055226;28;20044;-77
2023/03/07 02:14:49;;;;;;;16.95;2.67;;;;;;;;;;5036908;28;20198;-77
2023/03/07 02:17:16;;;;;;;11.90;2.13;;;;;;;;;;5045782;28;20044;-77
2023/03/07 02:19:58;;;;;;;14.75;2.83;;;;;;;;;;5056161;28;20045;-77
2023/03/07 02:22:25;;;;;;;9.85;2.45;;;;;;;;;;5073014;28;20059;-78
2023/03/07 02:25:11;;;;;;;13.85;2.50;;;;;;;;;;5068193;28;20578;-77
2023/03/07 02:27:38;;;;;;;13.93;2.55;;;;;;;;;;5019657;28;20057;-77
2023/03/07 02:30:05;;;;;;;12.65;2.60;;;;;;;;;;5053705;28;20076;-78
2023/03/07 02:32:31;;;;;;;15.07;2.47;;;;;;;;;;5025372;28;20071;-77
2023/03/07 02:34:57;;;;;;;12.55;2.67;;;;;;;;;;5034294;28;20135;-77
2023/03/07 02:37:44;;;;;;;13.15;2.50;;;;;;;;;;5064448;28;20065;-77
2023/03/07 02:40:11;;;;;;;13.35;2.90;;;;;;;;;;5052986;28;20052;-77
2023/03/07 02:42:40;;;;;;;12.40;2.78;;;;;;;;;;5053557;28;20076;-77
2023/03/07 02:45:08;;;;;;;14.15;2.80;;;;;;;;;;5027651;28;20060;-77
2023/03/07 02:47:34;;;;;;;18.42;2.85;;;;;;;;;;5053050;28;20493;-77
2023/03/07 02:50:01;;;;;;;10.88;2.50;;;;;;;;;;5054382;28;20052;-77
2023/03/07 02:52:27;;;;;;;8.95;2.25;;;;;;;;;;5059600;28;20037;-77
2023/03/07 02:54:53;;;;;;;14.63;2.60;;;;;;;;;;5054292;28;20053;-77
2023/03/07 02:57:19;;;;;;;12.43;2.50;;;;;;;;;;5065826;28;20552;-77
2023/03/07 02:59:45;;;;;;;10.65;2.10;;;;;;;;;;5052268;28;20044;-77
2023/03/07 03:02:11;;;;;;;11.07;2.22;;;;;;;;;;5052374;28;20060;-77
2023/03/07 03:04:37;;;;;;;14.63;2.47;;;;;;;;;;5034372;28;20048;-77
2023/03/07 03:07:03;;;;;;;13.82;2.20;;;;;;;;;;5034475;28;20490;-77
2023/03/07 03:09:30;;;;;;;11.07;2.20;;;;;;;;;;5058783;28;20052;-77
2023/03/07 03:11:56;;;;;;;10.43;2.20;;;;;;;;;;5054459;28;20392;-77
2023/03/07 03:14:22;;;;;;;11.00;2.35;;;;;;;;;;5038054;28;20040;-77
2023/03/07 03:16:48;;;;;;;10.27;2.47;;;;;;;;;;5072363;28;20041;-77
2023/03/07 03:19:14;;;;;;;9.93;2.13;;;;;;;;;;5072014;28;20037;-77
2023/03/07 03:21:41;;;;;;;12.77;2.55;;;;;;;;;;5071025;28;20514;-77
2023/03/07 03:24:08;;;;;;;9.38;2.35;;;;;;;;;;5034270;28;20045;-77
2023/03/07 03:26:34;;;;;;;8.90;2.28;;;;;;;;;;5052674;28;20040;-77
2023/03/07 03:29:00;;;;;;;11.38;2.90;;;;;;;;;;5043993;28;20455;-77
2023/03/07 03:31:29;;;;;;;10.80;2.15;;;;;;;;;;5068885;28;20052;-78
2023/03/07 03:33:55;;;;;;;11.30;2.28;;;;;;;;;;5033860;28;20053;-77
2023/03/07 03:36:24;;;;;;;9.45;2.63;;;;;;;;;;5060517;28;20040;-77
2023/03/07 03:38:52;;;;;;;11.40;2.42;;;;;;;;;;5059564;28;20045;-77
2023/03/07 03:41:18;;;;;;;11.65;2.50;;;;;;;;;;5053405;28;20045;-77
2023/03/07 03:43:44;;;;;;;11.05;2.05;;;;;;;;;;5034243;28;20041;-77
2023/03/07 03:46:10;;;;;;;12.95;2.28;;;;;;;;;;5034390;28;20114;-77
2023/03/07 03:48:36;;;;;;;10.50;2.58;;;;;;;;;;5057902;28;20052;-77
2023/03/07 03:51:06;;;;;;;9.35;2.47;;;;;;;;;;5039791;28;20071;-77
2023/03/07 03:53:33;;;;;;;10.25;2.72;;;;;;;;;;5035014;28;20088;-77
2023/03/07 03:56:07;;;;;;;9.85;2.15;;;;;;;;;;5053934;28;20082;-78
2023/03/07 03:58:33;;;;;;;8.95;2.28;;;;;;;;;;5035746;28;20094;-78
2023/03/07 04:01:06;;;;;;;9.80;2.15;;;;;;;;;;5038541;28;20109;-77
2023/03/07 04:03:36;;;;;;;11.32;2.42;;;;;;;;;;5070856;28;20082;-77
2023/03/07 04:06:03;;;;;;;11.02;2.28;;;;;;;;;;5035142;28;20037;-77
2023/03/07 04:08:30;;;;;;;8.18;2.20;;;;;;;;;;5041397;28;20057;-77
2023/03/07 04:10:56;;;;;;;14.15;2.80;;;;;;;;;;5035516;28;20193;-78
2023/03/07 04:13:22;;;;;;;11.23;2.30;;;;;;;;;;5071268;28;20044;-78
2023/03/07 04:15:48;;;;;;;9.25;2.20;;;;;;;;;;5072161;28;20047;-77
2023/03/07 04:18:14;;;;;;;12.63;2.45;;;;;;;;;;5051642;28;20037;-77
2023/03/07 04:20:41;;;;;;;13.25;2.40;;;;;;;;;;5055854;28;20362;-77
2023/03/07 04:23:07;;;;;;;11.55;3.38;;;;;;;;;;5040929;28;20498;-77
2023/03/07 04:25:34;;;;;;;13.18;2.42;;;;;;;;;;5070007;28;20072;-77
2023/03/07 04:27:59;;;;;;;9.13;2.70;;;;;;;;;;5062357;28;20079;-77
2023/03/07 04:30:26;;;;;;;13.68;2.60;;;;;;;;;;5052636;28;20143;-77
2023/03/07 04:32:52;;;;;;;11.63;2.10;;;;;;;;;;5054722;28;20129;-77
2023/03/07 04:35:18;;;;;;;12.68;2.42;;;;;;;;;;5052470;28;20072;-78
2023/03/07 04:37:44;;;;;;;12.25;2.70;;;;;;;;;;5074108;28;20068;-77
2023/03/07 04:40:10;;;;;;;10.27;2.50;;;;;;;;;;5055380;28;20047;-77
2023/03/07 04:42:36;;;;;;;13.30;2.30;;;;;;;;;;5056605;28;20465;-77
2023/03/07 04:45:02;;;;;;;12.10;2.53;;;;;;;;;;5056612;28;20152;-77
2023/03/07 04:47:31;;;;;;;14.27;2.60;;;;;;;;;;5054881;28;20389;-77
2023/03/07 04:49:57;;;;;;;8.00;2.10;;;;;;;;;;5024628;28;20041;-77
2023/03/07 04:52:23;;;;;;;10.50;2.30;;;;;;;;;;5052048;28;20111;-77
2023/03/07 04:54:49;;;;;;;9.55;2.30;;;;;;;;;;5066802;28;20058;-77
2023/03/07 04:57:15;;;;;;;14.00;2.40;;;;;;;;;;5075118;28;20969;-78
2023/03/07 04:59:41;;;;;;;11.68;2.28;;;;;;;;;;5055952;28;20045;-77
2023/03/07 05:02:07;;;;;;;13.40;2.83;;;;;;;;;;5054612;28;20041;-78
2023/03/07 05:04:34;;;;;;;18.35;3.03;;;;;;;;;;5036880;28;20041;-77
2023/03/07 05:07:00;;;;;;;9.05;2.17;;;;;;;;;;5036906;28;20077;-77
2023/03/07 05:09:26;;;;;;;9.27;2.35;;;;;;;;;;5035156;28;20053;-77
2023/03/07 05:11:52;;;;;;;10.20;2.28;;;;;;;;;;5038581;28;20131;-78
2023/03/07 05:14:18;;;;;;;11.63;2.63;;;;;;;;;;5056371;28;20109;-77
2023/03/07 05:16:44;;;;;;;11.63;2.45;;;;;;;;;;5074569;28;20450;-77
2023/03/07 05:19:10;;;;;;;8.40;2.17;;;;;;;;;;5056324;28;20044;-77
2023/03/07 05:21:38;;;;;;;8.60;2.20;;;;;;;;;;5074153;28;20449;-77
2023/03/07 05:24:04;;;;;;;9.88;2.42;;;;;;;;;;5038777;28;20056;-77
2023/03/07 05:26:30;;;;;;;13.95;2.58;;;;;;;;;;5024540;28;20051;-77
2023/03/07 05:28:56;;;;;;;8.05;2.28;;;;;;;;;;5054065;28;20076;-77
2023/03/07 05:31:23;;;;;;;10.90;3.08;;;;;;;;;;5055905;28;20073;-77
2023/03/07 05:33:49;;;;;;;13.02;2.45;;;;;;;;;;5071692;28;20138;-77
2023/03/07 05:36:15;;;;;;;13.85;2.42;;;;;;;;;;5053951;28;20048;-77
2023/03/07 05:38:41;;;;;;;12.32;3.03;;;;;;;;;;5054986;28;20080;-78
2023/03/07 05:41:07;;;;;;;13.93;2.40;;;;;;;;;;5054888;28;20045;-77
2023/03/07 05:43:33;;;;;;;10.68;2.15;;;;;;;;;;5044558;28;20053;-77
2023/03/07 05:45:59;;;;;;;13.13;2.72;;;;;;;;;;5051838;28;20041;-77
2023/03/07 05:48:25;;;;;;;9.57;2.55;;;;;;;;;;5033490;28;20374;-77
2023/03/07 05:50:51;;;;;;;10.13;2.10;;;;;;;;;;5052590;28;20041;-77
2023/03/07 05:53:17;;;;;;;12.30;2.42;;;;;;;;;;5064575;28;20037;-77
2023/03/07 05:55:43;;;;;;;9.98;2.65;;;;;;;;;;5053949;28;20351;-77
2023/03/07 05:58:09;;;;;;;7.30;2.45;;;;;;;;;;5065923;28;20040;-77
2023/03/07 06:00:36;;;;;;;5.82;2.08;;;;;;;;;;5054963;28;20054;-77
2023/03/07 06:03:02;;;;;;;13.32;2.92;;;;;;;;;;5059269;28;20186;-77
2023/03/07 06:05:28;;;;;;;8.52;2.00;;;;;;;;;;5065159;28;20087;-77
2023/03/07 06:07:55;;;;;;;10.25;1.90;;;;;;;;;;5034748;28;20052;-77
2023/03/07 06:10:21;;;;;;;7.82;1.85;;;;;;;;;;5054258;28;20048;-77
2023/03/07 06:12:50;;;;;;;9.40;1.75;;;;;;;;;;5053026;28;20417;-77
2023/03/07 06:15:16;;;;;;;9.98;2.15;;;;;;;;;;5057958;28;20112;-77
2023/03/07 06:17:42;;;;;;;8.93;1.95;;;;;;;;;;5072207;28;20115;-77
2023/03/07 06:20:09;;;;;;;7.95;1.85;;;;;;;;;;5054954;28;20059;-77
2023/03/07 06:22:37;;;;;;;5.40;1.80;;;;;;;;;;5073050;28;20060;-77
2023/03/07 06:25:03;;;;;;;10.05;2.22;;;;;;;;;;5072805;28;20045;-77
2023/03/07 06:27:33;;;;;;;8.75;1.90;;;;;;;;;;5072803;28;20393;-77
2023/03/07 06:29:59;;;;;;;8.32;1.80;;;;;;;;;;5050732;28;20573;-77
2023/03/07 06:32:25;;;;;;;6.22;1.90;;;;;;;;;;5052297;28;20132;-77
2023/03/07 06:34:51;;;;;;;9.60;1.77;;;;;;;;;;5034689;28;20124;-77
2023/03/07 06:37:17;;;;;;;10.05;2.00;;;;;;;;;;5052901;28;20037;-77
2023/03/07 06:39:43;;;;;;;5.32;1.60;;;;;;;;;;5034460;28;20044;-77
2023/03/07 06:42:09;;;;;;;5.43;1.50;;;;;;;;;;5052134;28;20053;-77
2023/03/07 06:44:35;;;;;;;7.28;1.90;;;;;;;;;;5033461;28;20128;-77
2023/03/07 06:47:01;;;;;;;6.72;1.80;;;;;;;;;;5034119;28;20497;-77
2023/03/07 06:49:27;;;;;;;7.00;1.75;;;;;;;;;;5044701;28;20132;-77
2023/03/07 06:51:53;;;;;;;9.27;2.40;;;;;;;;;;5052056;28;20580;-77
2023/03/07 06:54:19;;;;;;;6.40;1.83;;;;;;;;;;5064101;28;20051;-77
2023/03/07 06:56:45;;;;;;;8.50;1.80;;;;;;;;;;5054566;28;20048;-77
2023/03/07 06:59:11;;;;;;;6.60;2.03;;;;;;;;;;5072114;28;20040;-77
2023/03/07 07:01:38;;;;;;;8.43;2.47;;;;;;;;;;5072143;28;20052;-77
2023/03/07 07:04:04;;;;;;;7.68;1.60;;;;;;;;;;5052864;28;20052;-75
2023/03/07 07:06:30;;;;;;;10.07;1.75;;;;;;;;;;5037234;28;20083;-77
2023/03/07 07:08:57;;;;;;;7.25;2.00;;;;;;;;;;5067220;28;20052;-77
2023/03/07 07:11:23;;;;;;;8.60;2.13;;;;;;;;;;5067502;28;20041;-77
2023/03/07 07:13:50;;;;;;;9.38;2.42;;;;;;;;;;5034110;28;20124;-76
2023/03/07 07:16:16;;;;;;;7.63;1.80;;;;;;;;;;5054073;28;20045;-77
2023/03/07 07:18:43;;;;;;;6.25;1.73;;;;;;;;;;5042685;28;20045;-77
2023/03/07 07:21:09;;;;;;;7.32;1.90;;;;;;;;;;5053828;28;20063;-77
2023/03/07 07:23:35;;;;;;;6.10;1.70;;;;;;;;;;5058329;28;20071;-77
2023/03/07 07:26:01;;;;;;;8.50;1.95;;;;;;;;;;5052212;28;20373;-78
2023/03/07 07:28:27;;;;;;;4.40;1.52;;;;;;;;;;5033543;28;20049;-78
2023/03/07 07:30:53;;;;;;;5.68;1.73;;;;;;;;;;5071612;28;20489;-78
2023/03/07 07:33:19;;;;;;;5.47;1.80;;;;;;;;;;5035651;28;20547;-78
2023/03/07 07:35:46;;;;;;;4.30;1.60;;;;;;;;;;5032534;28;20155;-78
2023/03/07 07:38:12;;;;;;;6.82;1.60;;;;;;;;;;5051077;28;20044;-77
2023/03/07 07:40:39;;;;;;;4.90;1.55;;;;;;;;;;5045829;28;20086;-77
2023/03/07 07:43:05;;;;;;;5.85;1.65;;;;;;;;;;5051560;28;20086;-77
2023/03/07 07:45:31;;;;;;;6.57;1.95;;;;;;;;;;5058756;28;20036;-77
2023/03/07 07:47:57;;;;;;;4.60;1.58;;;;;;;;;;5035184;28;20105;-78
2023/03/07 07:50:23;;;;;;;6.28;1.98;;;;;;;;;;5071300;28;20055;-77
2023/03/07 07:52:52;;;;;;;7.85;1.90;;;;;;;;;;5053465;28;20049;-77
2023/03/07 07:55:18;;;;;;;6.18;2.10;;;;;;;;;;5036810;28;20143;-77
2023/03/07 07:57:44;;;;;;;4.82;1.85;;;;;;;;;;5064151;28;20045;-77
2023/03/07 08:00:11;;;;;;;10.05;2.40;;;;;;;;;;5016995;28;20045;-78
2023/03/07 08:02:37;;;;;;;6.50;1.83;;;;;;;;;;5051629;28;20044;-78
2023/03/07 08:05:06;;;;;;;7.78;1.75;;;;;;;;;;5021730;28;20048;-77
2023/03/07 08:07:33;;;;;;;8.52;1.90;;;;;;;;;;5041681;28;20158;-77
2023/03/07 08:09:59;;;;;;;6.15;1.73;;;;;;;;;;5072005;28;20048;-76
2023/03/07 08:12:25;;;;;;;6.82;2.00;;;;;;;;;;5071339;28;20072;-76
2023/03/07 08:14:51;;;;;;;8.10;1.98;;;;;;;;;;5055253;28;20075;-78
2023/03/07 08:17:17;;;;;;;8.43;2.85;;;;;;;;;;5054161;28;20413;-77
2023/03/07 08:19:43;;;;;;;4.80;2.00;;;;;;;;;;5054796;28;20053;-78
2023/03/07 08:22:09;;;;;;;10.77;3.55;;;;;;;;;;5037003;28;20572;-78
2023/03/07 08:24:35;;;;;;;9.68;3.33;;;;;;;;;;5053415;28;20042;-78
2023/03/07 08:27:02;;;;;;;10.80;2.70;;;;;;;;;;5074430;28;20555;-77
2023/03/07 08:29:28;;;;;;;7.85;2.10;;;;;;;;;;5053259;28;20061;-77
2023/03/07 08:31:54;;;;;;;7.28;2.67;;;;;;;;;;5053075;28;20045;-78
2023/03/07 08:34:20;;;;;;;6.78;2.00;;;;;;;;;;5054823;28;20053;-77
2023/03/07 08:36:46;;;;;;;6.47;1.90;;;;;;;;;;5035014;28;20056;-77
2023/03/07 08:39:12;;;;;;;7.53;2.38;;;;;;;;;;5054442;28;20120;-77
2023/03/07 08:41:38;;;;;;;5.95;1.70;;;;;;;;;;5069306;28;20044;-77
2023/03/07 08:44:04;;;;;;;9.57;1.70;;;;;;;;;;5062673;28;20178;-77
2023/03/07 08:46:30;;;;;;;8.25;2.05;;;;;;;;;;5074733;28;20036;-77
2023/03/07 08:48:56;;;;;;;8.27;2.05;;;;;;;;;;5064837;28;20067;-77
2023/03/07 08:51:23;;;;;;;8.32;1.80;;;;;;;;;;5050158;28;20041;-77
2023/03/07 08:53:49;;;;;;;6.75;2.33;;;;;;;;;;5074733;28;20094;-77
2023/03/07 08:56:16;;;;;;;6.22;2.13;;;;;;;;;;5060952;28;20048;-76
2023/03/07 08:58:43;;;;;;;7.13;1.80;;;;;;;;;;5054588;28;20060;-77
2023/03/07 09:01:09;;;;;;;7.07;2.00;;;;;;;;;;5036575;28;20126;-77
2023/03/07 09:03:35;;;;;;;10.45;2.42;;;;;;;;;;5060251;28;20091;-77
2023/03/07 09:06:02;;;;;;;7.82;2.15;;;;;;;;;;5069897;28;20080;-76
2023/03/07 09:08:28;;;;;;;6.22;2.15;;;;;;;;;;5056958;28;20144;-78
2023/03/07 09:10:54;;;;;;;6.00;2.00;;;;;;;;;;5054447;28;20467;-78
2023/03/07 09:13:20;;;;;;;7.30;1.80;;;;;;;;;;5036245;28;20389;-78
2023/03/07 09:15:46;;;;;;;8.75;2.53;;;;;;;;;;5054555;28;20049;-78
2023/03/07 09:18:13;;;;;;;5.88;2.20;;;;;;;;;;5053447;28;20041;-78
2023/03/07 09:20:39;;;;;;;7.55;2.00;;;;;;;;;;5054230;28;20107;-76
2023/03/07 09:23:05;;;;;;;5.15;1.98;;;;;;;;;;5019256;28;20516;-76
2023/03/07 09:25:32;;;;;;;8.38;2.20;;;;;;;;;;5036036;28;20048;-76
2023/03/07 09:27:58;;;;;;;5.57;2.10;;;;;;;;;;5035976;28;20048;-77
2023/03/07 09:30:25;;;;;;;5.32;1.77;;;;;;;;;;5035655;28;20045;-76
2023/03/07 09:32:52;;;;;;;5.05;1.90;;;;;;;;;;5033495;28;20051;-76
2023/03/07 09:35:18;;;;;;;5.20;1.65;;;;;;;;;;5072658;28;20049;-76
2023/03/07 09:37:44;;;;;;;7.63;1.85;;;;;;;;;;5055221;28;20364;-76
2023/03/07 09:40:22;;;;;;;9.15;1.73;;;;;;;;;;5041274;28;20076;-76
2023/03/07 09:42:57;;;;;;;7.68;2.05;;;;;;;;;;5042397;28;20041;-76
2023/03/07 09:45:42;;;;;;;5.13;1.65;;;;;;;;;;5062286;28;20119;-75
2023/03/07 09:48:25;;;;;;;5.93;1.70;;;;;;;;;;5071252;28;20044;-76
2023/03/07 09:50:56;;;;;;;10.40;2.00;;;;;;;;;;5035322;28;20049;-76
2023/03/07 09:53:24;;;;;;;6.25;2.13;;;;;;;;;;5041332;28;20448;-79
2023/03/07 09:55:51;;;;;;;5.32;1.80;;;;;;;;;;5057630;28;20048;-77
2023/03/07 09:58:19;;;;;;;5.97;1.83;;;;;;;;;;5054971;28;20045;-77
2023/03/07 10:00:46;;;;;;;4.70;1.90;;;;;;;;;;5055228;28;20158;-77
2023/03/07 10:03:12;;;;;;;7.68;2.22;;;;;;;;;;5054958;28;20059;-77
2023/03/07 10:05:41;;;;;;;7.32;1.98;;;;;;;;;;5064104;28;20041;-78
2023/03/07 10:08:11;;;;;;;6.68;2.30;;;;;;;;;;5042280;28;20053;-78
2023/03/07 10:10:39;;;;;;;5.53;1.90;;;;;;;;;;5035333;28;20040;-76
2023/03/07 10:13:11;;;;;;;10.07;2.00;;;;;;;;;;5040824;28;20045;-76
2023/03/07 10:15:57;;;;;;;6.78;2.10;;;;;;;;;;5062164;28;20056;-79
2023/03/07 10:18:55;;;;;;;7.72;2.97;;;;;;;;;;5067723;28;20062;-76
2023/03/07 10:21:37;;;;;;;6.30;2.08;;;;;;;;;;5019091;28;20052;-78
2023/03/07 10:24:10;;;;;;;7.07;2.00;;;;;;;;;;5056198;28;20088;-76
2023/03/07 10:26:48;;;;;;;8.45;1.92;;;;;;;;;;5054578;28;20124;-77
2023/03/07 10:29:17;;;;;;;6.85;2.53;;;;;;;;;;5071598;28;20170;-77
2023/03/07 10:31:53;;;;;;;5.80;1.98;;;;;;;;;;5066928;28;20444;-77
2023/03/07 10:34:22;;;;;;;9.30;1.98;;;;;;;;;;5034529;28;20048;-77
2023/03/07 10:36:50;;;;;;;7.85;2.40;;;;;;;;;;5035553;28;20433;-77
2023/03/07 10:39:23;;;;;;;8.55;1.90;;;;;;;;;;5051189;28;20079;-78
2023/03/07 10:41:49;;;;;;;9.60;2.00;;;;;;;;;;5034526;28;20040;-76
2023/03/07 10:44:16;;;;;;;9.02;2.38;;;;;;;;;;5015949;28;20045;-77
2023/03/07 10:46:43;;;;;;;8.50;2.10;;;;;;;;;;5051807;28;20045;-77
2023/03/07 10:49:15;;;;;;;7.47;1.90;;;;;;;;;;5034169;28;20505;-77
2023/03/07 10:51:49;;;;;;;7.90;1.80;;;;;;;;;;5059831;28;20045;-77
2023/03/07 10:54:28;;;;;;;5.68;1.80;;;;;;;;;;5063461;28;20140;-77
2023/03/07 10:57:03;;;;;;;10.65;2.78;;;;;;;;;;5059860;28;20123;-77
2023/03/07 10:59:29;;;;;;;6.80;2.38;;;;;;;;;;5052796;28;20060;-77
2023/03/07 11:01:59;;;;;;;9.70;2.10;;;;;;;;;;5051588;28;20082;-77
2023/03/07 11:04:27;;;;;;;8.10;2.28;;;;;;;;;;5039787;28;20120;-77
2023/03/07 11:06:54;;;;;;;7.50;2.30;;;;;;;;;;5051471;28;20067;-77
2023/03/07 11:09:23;;;;;;;6.53;2.03;;;;;;;;;;5031729;28;20412;-77
2023/03/07 11:11:51;;;;;;;8.57;2.38;;;;;;;;;;5030788;28;20041;-77
2023/03/07 11:14:17;;;;;;;8.98;2.28;;;;;;;;;;5031216;28;20055;-74
2023/03/07 11:16:49;;;;;;;7.45;2.13;;;;;;;;;;5053489;28;20193;-73
2023/03/07 11:19:32;;;;;;;7.38;1.95;;;;;;;;;;5062650;28;20095;-74
2023/03/07 11:21:59;;;;;;;5.80;2.20;;;;;;;;;;5067469;28;20134;-73
2023/03/07 11:24:26;;;;;;;5.68;2.13;;;;;;;;;;5048784;28;20122;-73
2023/03/07 11:26:53;;;;;;;7.88;1.98;;;;;;;;;;5068120;28;20515;-72
2023/03/07 11:29:19;;;;;;;4.53;1.88;;;;;;;;;;5068436;28;20106;-73
2023/03/07 11:31:45;;;;;;;7.88;2.30;;;;;;;;;;5068620;28;20041;-73
2023/03/07 11:34:14;;;;;;;10.80;1.85;;;;;;;;;;5043076;28;20052;-73
2023/03/07 11:36:43;;;;;;;5.85;1.63;;;;;;;;;;5013914;28;20071;-72
2023/03/07 11:39:13;;;;;;;5.95;1.65;;;;;;;;;;5048267;28;20032;-72
2023/03/07 11:41:41;;;;;;;4.93;1.55;;;;;;;;;;5056403;28;20048;-72
2023/03/07 11:44:26;;;;;;;9.68;2.15;;;;;;;;;;5070196;28;20063;-73
2023/03/07 11:46:52;;;;;;;5.30;1.80;;;;;;;;;;5073399;28;20315;-76
2023/03/07 11:49:21;;;;;;;4.47;1.90;;;;;;;;;;5023976;28;20056;-76
2023/03/07 11:51:50;;;;;;;7.55;1.92;;;;;;;;;;5058727;28;20037;-76
2023/03/07 11:54:35;;;;;;;12.98;2.20;;;;;;;;;;5046388;28;20095;-76
2023/03/07 11:57:08;;;;;;;9.10;2.40;;;;;;;;;;5055693;28;20084;-76
2023/03/07 11:59:44;;;;;;;7.13;2.15;;;;;;;;;;5055580;28;20045;-76
2023/03/07 12:02:39;;;;;;;9.38;2.05;;;;;;;;;;5037381;28;20106;-76
2023/03/07 12:05:15;;;;;;;7.93;2.15;;;;;;;;;;5045059;28;20045;-76
2023/03/07 12:07:50;;;;;;;8.90;2.25;;;;;;;;;;5037266;28;20056;-76
2023/03/07 12:10:16;;;;;;;6.10;2.20;;;;;;;;;;5055440;28;20406;-76
2023/03/07 12:12:45;;;;;;;11.45;2.15;;;;;;;;;;5055172;28;20045;-77
2023/03/07 12:15:23;;;;;;;7.55;1.80;;;;;;;;;;5055198;28;20064;-76
2023/03/07 12:18:08;;;;;;;7.82;2.22;;;;;;;;;;5037075;28;20048;-76
2023/03/07 12:20:45;;;;;;;6.38;1.80;;;;;;;;;;5037468;28;20045;-76
2023/03/07 12:23:11;;;;;;;7.03;1.85;;;;;;;;;;5055164;28;20045;-76
2023/03/07 12:25:42;;;;;;;7.72;1.90;;;;;;;;;;5055219;28;20037;-77
2023/03/07 12:28:13;;;;;;;5.03;1.80;;;;;;;;;;5018690;28;20468;-77
2023/03/07 12:30:49;;;;;;;8.25;2.00;;;;;;;;;;5055196;28;20098;-77
2023/03/07 12:33:34;;;;;;;5.53;1.90;;;;;;;;;;5054841;28;20059;-77
2023/03/07 12:36:06;;;;;;;3.50;1.40;;;;;;;;;;5074004;28;20044;-77
2023/03/07 12:38:36;;;;;;;4.57;1.50;;;;;;;;;;5055745;28;20060;-77
2023/03/07 12:41:10;;;;;;;4.93;1.33;;;;;;;;;;5075098;28;20113;-77
2023/03/07 12:43:39;;;;;;;5.15;1.40;;;;;;;;;;5038684;28;20052;-77
2023/03/07 12:46:05;;;;;;;5.80;1.90;;;;;;;;;;5056083;28;20041;-77
2023/03/07 12:48:52;;;;;;;5.20;1.63;;;;;;;;;;5074321;28;20396;-77
2023/03/07 12:51:30;;;;;;;5.63;1.40;;;;;;;;;;5074582;28;20045;-77
2023/03/07 12:53:59;;;;;;;6.80;1.52;;;;;;;;;;5073978;28;20041;-77
2023/03/07 12:56:47;;;;;;;4.20;1.40;;;;;;;;;;5074642;28;20091;-77
2023/03/07 12:59:15;;;;;;;6.18;1.42;;;;;;;;;;5039937;28;20454;-77
2023/03/07 13:01:45;;;;;;;7.05;1.40;;;;;;;;;;5052292;28;20174;-77
2023/03/07 13:04:15;;;;;;;4.63;1.52;;;;;;;;;;5037166;28;20033;-77
2023/03/07 13:06:43;;;;;;;3.88;1.30;;;;;;;;;;5055641;28;20040;-77
2023/03/07 13:09:22;;;;;;;10.00;1.60;;;;;;;;;;5066392;28;20393;-77
2023/03/07 13:12:07;;;;;;;7.65;1.77;;;;;;;;;;5072746;28;20056;-77
2023/03/07 13:14:37;;;;;;;7.45;1.85;;;;;;;;;;5038554;28;20378;-77
2023/03/07 13:17:03;;;;;;;7.20;2.00;;;;;;;;;;5046852;28;20075;-77
2023/03/07 13:19:35;;;;;;;7.82;1.80;;;;;;;;;;5073411;28;20122;-77
2023/03/07 13:22:02;;;;;;;7.95;1.85;;;;;;;;;;5039467;28;20045;-77
2023/03/07 13:24:32;;;;;;;4.88;1.42;;;;;;;;;;5071937;28;20045;-77
2023/03/07 13:26:59;;;;;;;6.60;1.50;;;;;;;;;;5060114;28;20101;-77
2023/03/07 13:29:43;;;;;;;6.38;1.60;;;;;;;;;;5053839;28;20074;-77
2023/03/07 13:32:28;;;;;;;8.23;1.65;;;;;;;;;;5043164;28;20124;-77
2023/03/07 13:34:54;;;;;;;5.57;1.58;;;;;;;;;;5071082;28;20053;-77
2023/03/07 13:37:39;;;;;;;6.88;1.60;;;;;;;;;;5071570;28;20090;-77
2023/03/07 13:40:20;;;;;;;5.53;1.48;;;;;;;;;;5073333;28;20054;-77
2023/03/07 13:42:47;;;;;;;6.97;1.85;;;;;;;;;;5073576;28;20258;-77
2023/03/07 13:45:32;;;;;;;8.93;1.90;;;;;;;;;;5072468;28;20347;-77
2023/03/07 13:47:58;;;;;;;6.50;1.63;;;;;;;;;;5064634;28;20045;-77
2023/03/07 13:50:36;;;;;;;6.35;1.60;;;;;;;;;;5054982;28;20052;-77
2023/03/07 13:53:22;;;;;;;6.35;1.50;;;;;;;;;;5063586;28;20408;-77
2023/03/07 13:55:49;;;;;;;;;;;;;;;;;;5039077;28;20044;-77
2023/03/07 13:58:19;;;;;;;6.47;1.73;;;;;;;;;;5053779;28;20207;-77
2023/03/07 14:00:53;;;;;;;5.32;1.73;;;;;;;;;;5054442;28;20559;-77
2023/03/07 14:03:25;;;;;;;6.95;1.63;;;;;;;;;;5071680;28;20040;-77
2023/03/07 14:05:51;;;;;;;4.15;1.35;;;;;;;;;;5072477;28;20048;-77
2023/03/07 14:08:20;;;;;;;6.25;1.65;;;;;;;;;;5072586;28;20397;-76
2023/03/07 14:10:47;;;;;;;14.77;1.90;;;;;;;;;;5055252;28;20136;-76
2023/03/07 14:13:22;;;;;;;5.35;1.42;;;;;;;;;;5036219;28;20095;-75
2023/03/07 14:16:15;;;;;;;8.20;1.70;;;;;;;;;;5073008;28;20051;-77
2023/03/07 14:18:47;;;;;;;3.97;1.38;;;;;;;;;;5052069;28;20063;-75
2023/03/07 14:21:13;;;;;;;4.22;1.58;;;;;;;;;;5072555;28;20037;-76
2023/03/07 14:23:39;;;;;;;5.60;1.58;;;;;;;;;;5070895;28;20047;-76
2023/03/07 14:26:24;;;;;;;8.25;1.80;;;;;;;;;;5072944;28;20051;-77
2023/03/07 14:29:03;;;;;;;6.10;1.50;;;;;;;;;;5054713;28;20041;-77
2023/03/07 14:31:31;;;;;;;8.02;1.60;;;;;;;;;;5072779;28;20124;-76
2023/03/07 14:33:57;;;;;;;8.80;1.88;;;;;;;;;;5054620;28;20048;-77
2023/03/07 14:36:32;;;;;;;8.75;1.77;;;;;;;;;;5073217;28;20040;-77
2023/03/07 14:39:03;;;;;;;5.85;1.77;;;;;;;;;;5040224;28;20144;-77
2023/03/07 14:41:44;;;;;;;7.50;1.80;;;;;;;;;;5039814;28;20036;-76
2023/03/07 14:44:10;;;;;;;5.05;1.67;;;;;;;;;;5046133;28;20064;-76
2023/03/07 14:46:36;;;;;;;3.78;1.50;;;;;;;;;;5068328;28;20040;-77
2023/03/07 14:49:25;;;;;;;5.95;1.20;;;;;;;;;;5070005;28;20052;-77